Time;durP1;ratioP1;P1;durP2;ratioP2;P2;SDS_P1;SDS_P2;PMS_P1;PMS_P2;Temp;Humidity;BMP_temperature;BMP_pressure;BME280_temperature;BME280_humidity;BME280_pressure;Samples;Min_cycle;Max_cycle;Signal;HPM_P1;HPM_P2
2021/09/28 00:02:17;;;;;;;3.75;1.80;;;;;;;19.73;47.04;101790.13;4972877;28;20070;-78
2021/09/28 00:04:44;;;;;;;4.38;1.80;;;;;;;19.74;47.21;101796.50;4969769;28;20086;-79
2021/09/28 00:07:14;;;;;;;4.68;2.08;;;;;;;19.72;46.86;101804.03;4960331;28;20042;-78
2021/09/28 00:09:41;;;;;;;4.43;1.80;;;;;;;19.69;46.95;101796.03;4971863;28;20074;-78
2021/09/28 00:12:08;;;;;;;4.40;1.67;;;;;;;19.68;46.88;101803.41;4968851;28;20102;-78
2021/09/28 00:14:36;;;;;;;3.67;1.80;;;;;;;19.67;47.12;101812.72;4973167;28;20046;-78
2021/09/28 00:17:03;;;;;;;3.50;1.70;;;;;;;19.64;47.20;101812.13;4971866;28;20126;-78
2021/09/28 00:19:30;;;;;;;4.10;1.85;;;;;;;19.63;46.90;101816.75;4979763;28;20050;-79
2021/09/28 00:21:56;;;;;;;4.88;1.80;;;;;;;19.61;46.88;101812.38;4994323;28;20058;-79
2021/09/28 00:24:23;;;;;;;4.68;2.25;;;;;;;19.59;47.29;101812.53;4975002;28;20738;-78
2021/09/28 00:26:49;;;;;;;4.13;1.58;;;;;;;19.59;47.30;101814.41;4976863;28;20047;-79
2021/09/28 00:29:16;;;;;;;3.67;1.50;;;;;;;19.56;47.10;101815.56;4988020;28;20419;-78
2021/09/28 00:31:42;;;;;;;4.03;1.73;;;;;;;19.54;47.20;101825.84;5008274;28;20113;-78
2021/09/28 00:34:09;;;;;;;4.80;1.80;;;;;;;19.53;47.12;101825.97;4974910;28;20078;-79
2021/09/28 00:36:36;;;;;;;2.85;1.70;;;;;;;19.51;46.69;101831.63;4970858;28;20078;-78
2021/09/28 00:39:02;;;;;;;3.70;1.73;;;;;;;19.49;46.81;101824.50;4971874;28;20089;-78
2021/09/28 00:41:29;;;;;;;4.47;1.80;;;;;;;19.46;47.21;101819.22;4981034;28;20047;-78
2021/09/28 00:43:57;;;;;;;4.50;2.03;;;;;;;19.45;46.87;101825.75;4975830;28;20050;-79
2021/09/28 00:46:25;;;;;;;4.13;1.83;;;;;;;19.42;47.28;101826.03;4977154;28;20055;-78
2021/09/28 00:48:52;;;;;;;4.55;1.90;;;;;;;19.40;46.92;101815.16;4971698;28;20138;-77
2021/09/28 00:51:20;;;;;;;4.28;1.50;;;;;;;19.38;46.71;101823.53;4969922;28;20075;-79
2021/09/28 00:53:50;;;;;;;4.95;1.73;;;;;;;19.38;46.92;101820.78;4972728;28;20062;-79
2021/09/28 00:56:19;;;;;;;4.63;1.83;;;;;;;19.36;47.32;101822.78;4975583;28;20059;-77
2021/09/28 00:58:45;;;;;;;4.28;1.45;;;;;;;19.33;46.92;101827.72;4974668;28;20266;-78
2021/09/28 01:01:14;;;;;;;3.40;1.70;;;;;;;19.34;47.21;101826.72;4991157;28;20078;-78
2021/09/28 01:03:41;;;;;;;3.08;1.60;;;;;;;19.31;46.88;101841.63;4990604;28;20113;-79
2021/09/28 01:06:08;;;;;;;4.70;1.77;;;;;;;19.29;47.43;101828.97;4974074;28;20051;-78
2021/09/28 01:08:35;;;;;;;3.40;1.73;;;;;;;19.29;47.29;101831.72;4975334;28;20050;-78
2021/09/28 01:11:03;;;;;;;3.47;1.50;;;;;;;19.28;46.96;101829.97;4969987;28;20572;-78
2021/09/28 01:13:30;;;;;;;3.83;1.65;;;;;;;19.26;47.28;101829.28;4973843;28;20525;-78
2021/09/28 01:15:59;;;;;;;4.15;1.60;;;;;;;19.27;47.37;101834.63;4961403;28;20079;-79
2021/09/28 01:18:28;;;;;;;3.72;1.70;;;;;;;19.24;47.47;101837.66;4973681;28;20058;-79
2021/09/28 01:20:55;;;;;;;3.17;1.50;;;;;;;19.22;47.26;101841.53;4975537;28;20086;-79
2021/09/28 01:23:22;;;;;;;3.67;1.50;;;;;;;19.21;47.09;101848.06;4957482;28;20047;-78
2021/09/28 01:25:49;;;;;;;3.25;1.40;;;;;;;19.21;47.39;101834.28;4971055;28;20043;-79
2021/09/28 01:28:15;;;;;;;2.97;1.45;;;;;;;19.20;47.27;101851.81;4957432;28;20054;-78
2021/09/28 01:30:42;;;;;;;4.72;1.70;;;;;;;19.18;47.22;101843.72;4973072;28;20628;-78
2021/09/28 01:33:09;;;;;;;4.55;1.55;;;;;;;19.17;47.17;101846.59;4974187;28;20050;-78
2021/09/28 01:35:38;;;;;;;4.85;2.00;;;;;;;19.16;47.04;101844.84;4982586;28;20047;-78
2021/09/28 01:38:04;;;;;;;3.85;1.60;;;;;;;19.14;46.75;101849.59;4967832;28;20047;-78
2021/09/28 01:40:31;;;;;;;4.45;1.50;;;;;;;19.13;47.04;101850.59;4969204;28;20058;-79
2021/09/28 01:43:11;;;;;;;3.88;1.60;;;;;;;19.15;47.18;101854.97;4969510;28;20043;-78
2021/09/28 01:45:39;;;;;;;3.78;1.40;;;;;;;19.11;47.29;101859.00;4959404;28;20051;-78
2021/09/28 01:48:06;;;;;;;3.72;1.50;;;;;;;19.09;47.19;101852.78;4974321;28;20055;-79
2021/09/28 01:50:34;;;;;;;3.22;1.30;;;;;;;19.09;47.25;101851.91;4974269;28;20134;-79
2021/09/28 01:53:01;;;;;;;4.00;1.50;;;;;;;19.07;47.38;101854.78;4957782;28;20137;-77
2021/09/28 01:55:27;;;;;;;3.08;1.50;;;;;;;19.05;47.48;101848.53;4988810;28;20134;-78
2021/09/28 01:57:58;;;;;;;3.83;1.35;;;;;;;19.04;47.38;101852.28;4976428;28;20078;-78
2021/09/28 02:00:26;;;;;;;3.38;1.48;;;;;;;19.04;47.44;101844.03;4959033;28;20101;-78
2021/09/28 02:02:53;;;;;;;5.05;1.73;;;;;;;19.00;47.40;101851.69;4971926;28;20047;-77
2021/09/28 02:05:20;;;;;;;3.60;1.58;;;;;;;18.99;47.44;101852.69;4973849;28;20047;-78
2021/09/28 02:07:47;;;;;;;4.57;1.40;;;;;;;18.97;47.40;101849.19;4973927;28;20051;-79
2021/09/28 02:10:13;;;;;;;2.97;1.33;;;;;;;18.96;47.47;101857.56;4975124;28;20082;-78
2021/09/28 02:12:40;;;;;;;4.13;1.52;;;;;;;18.94;47.15;101854.94;4979057;28;20067;-78
2021/09/28 02:15:07;;;;;;;3.72;1.65;;;;;;;18.92;47.41;101845.97;4990167;28;20127;-78
2021/09/28 02:17:34;;;;;;;4.20;1.40;;;;;;;18.91;47.42;101857.97;4987944;28;20484;-78
2021/09/28 02:20:00;;;;;;;3.33;1.40;;;;;;;18.89;47.56;101859.97;4974866;28;20074;-77
2021/09/28 02:22:27;;;;;;;4.25;1.40;;;;;;;18.88;47.35;101852.72;4964262;28;20177;-79
2021/09/28 02:24:53;;;;;;;3.80;1.55;;;;;;;18.87;47.27;101861.09;4974293;28;20058;-79
2021/09/28 02:27:20;;;;;;;3.58;1.40;;;;;;;18.86;47.07;101856.63;4988450;28;20070;-78
2021/09/28 02:29:46;;;;;;;3.45;1.80;;;;;;;18.84;47.39;101854.00;4985094;28;20046;-78
2021/09/28 02:32:13;;;;;;;3.08;1.55;;;;;;;18.83;47.55;101851.38;4987340;28;20057;-78
2021/09/28 02:34:39;;;;;;;3.03;1.63;;;;;;;18.81;47.42;101856.13;4970444;28;20066;-78
2021/09/28 02:37:08;;;;;;;4.20;1.75;;;;;;;18.80;47.33;101860.78;4967681;28;20115;-78
2021/09/28 02:39:39;;;;;;;3.67;1.30;;;;;;;18.78;47.30;101857.25;4971617;28;20070;-78
2021/09/28 02:42:08;;;;;;;3.40;1.55;;;;;;;18.79;47.37;101860.91;4985356;28;20082;-78
2021/09/28 02:44:34;;;;;;;4.65;2.05;;;;;;;18.77;47.71;101865.69;4971931;28;20083;-78
2021/09/28 02:47:02;;;;;;;4.60;1.60;;;;;;;18.76;47.06;101858.44;4971117;28;20138;-78
2021/09/28 02:49:28;;;;;;;4.90;1.63;;;;;;;18.74;47.06;101855.78;4972300;28;20130;-78
2021/09/28 02:51:55;;;;;;;3.45;1.48;;;;;;;18.74;47.72;101855.78;4971332;28;20493;-78
2021/09/28 02:54:22;;;;;;;3.30;1.35;;;;;;;18.73;47.58;101864.19;4986338;28;20723;-78
2021/09/28 02:56:48;;;;;;;4.30;1.33;;;;;;;18.72;47.47;101863.31;4987466;28;20141;-78
2021/09/28 02:59:15;;;;;;;3.45;1.75;;;;;;;18.72;47.93;101873.44;4977200;28;20054;-78
2021/09/28 03:01:41;;;;;;;4.95;1.77;;;;;;;18.69;47.65;101863.59;4971800;28;20074;-78
2021/09/28 03:04:08;;;;;;;5.03;1.70;;;;;;;18.70;47.43;101869.94;4972246;28;20051;-79
2021/09/28 03:06:35;;;;;;;4.13;1.85;;;;;;;18.68;47.57;101870.09;4968320;28;20142;-78
2021/09/28 03:09:01;;;;;;;2.38;1.45;;;;;;;18.67;47.34;101854.59;4984157;28;20491;-78
2021/09/28 03:11:28;;;;;;;6.15;1.85;;;;;;;18.67;47.57;101859.19;4972767;28;20092;-78
2021/09/28 03:13:54;;;;;;;3.10;1.60;;;;;;;18.66;47.71;101868.47;4954311;28;20078;-78
2021/09/28 03:16:22;;;;;;;4.05;1.30;;;;;;;18.66;47.78;101871.22;4972601;28;20457;-78
2021/09/28 03:18:49;;;;;;;3.65;1.70;;;;;;;18.66;47.58;101869.34;4963289;28;20047;-77
2021/09/28 03:21:16;;;;;;;3.53;1.60;;;;;;;18.64;47.40;101865.84;4967545;28;20051;-78
2021/09/28 03:23:43;;;;;;;2.80;1.25;;;;;;;18.65;47.40;101870.34;4967264;28;20134;-78
2021/09/28 03:26:09;;;;;;;3.35;1.40;;;;;;;18.65;47.38;101869.47;4970282;28;20086;-77
2021/09/28 03:28:36;;;;;;;3.33;1.40;;;;;;;18.65;47.19;101880.47;4969890;28;20050;-78
2021/09/28 03:31:03;;;;;;;2.55;1.30;;;;;;;18.63;47.36;101875.97;4970306;28;20085;-78
2021/09/28 03:33:30;;;;;;;2.85;1.20;;;;;;;18.63;47.62;101875.09;4972525;28;20061;-79
2021/09/28 03:35:56;;;;;;;2.25;1.10;;;;;;;18.63;47.42;101880.59;4971171;28;20081;-79
2021/09/28 03:38:23;;;;;;;3.75;1.30;;;;;;;18.62;47.15;101879.72;4970169;28;20081;-78
2021/09/28 03:40:49;;;;;;;4.30;1.50;;;;;;;18.62;47.55;101887.97;4971679;28;20078;-78
2021/09/28 03:43:16;;;;;;;3.42;1.42;;;;;;;18.61;47.23;101882.63;4971967;28;20526;-78
2021/09/28 03:45:42;;;;;;;3.17;1.30;;;;;;;18.61;47.48;101883.47;4970684;28;20119;-78
2021/09/28 03:48:09;;;;;;;2.80;1.30;;;;;;;18.59;47.65;101880.00;4954175;28;20079;-78
2021/09/28 03:50:37;;;;;;;4.88;1.23;;;;;;;18.59;47.56;101882.75;4971163;28;20098;-79
2021/09/28 03:53:04;;;;;;;2.95;1.10;;;;;;;18.57;47.45;101886.59;4971475;28;20139;-78
2021/09/28 03:55:32;;;;;;;5.25;1.17;;;;;;;18.57;47.40;101889.34;4965422;28;20123;-78
2021/09/28 03:58:02;;;;;;;2.45;1.00;;;;;;;18.55;47.29;101894.06;4989466;28;20078;-78
2021/09/28 04:00:31;;;;;;;4.85;1.60;;;;;;;18.54;47.44;101890.44;4974298;28;20074;-78
2021/09/28 04:02:57;;;;;;;2.95;1.15;;;;;;;18.53;47.43;101896.09;4957275;28;20137;-78
2021/09/28 04:05:24;;;;;;;2.70;1.20;;;;;;;18.51;47.38;101892.59;4976585;28;20050;-78
2021/09/28 04:07:51;;;;;;;3.78;1.40;;;;;;;18.50;47.48;101896.34;4973524;28;20045;-78
2021/09/28 04:10:17;;;;;;;3.83;1.33;;;;;;;18.47;47.38;101902.97;4983120;28;20374;-79
2021/09/28 04:12:44;;;;;;;3.03;1.45;;;;;;;18.46;47.31;101898.47;4973831;28;20050;-78
2021/09/28 04:15:10;;;;;;;4.70;1.40;;;;;;;18.45;47.83;101898.59;4959204;28;20046;-78
2021/09/28 04:17:37;;;;;;;4.13;1.90;;;;;;;18.44;47.45;101899.63;4972625;28;20082;-78
2021/09/28 04:20:04;;;;;;;4.18;1.50;;;;;;;18.42;47.41;101901.63;4974461;28;20142;-79
2021/09/28 04:22:31;;;;;;;3.25;1.15;;;;;;;18.40;47.41;101903.63;4972412;28;20063;-78
2021/09/28 04:24:57;;;;;;;3.97;1.50;;;;;;;18.38;47.38;101903.72;4979871;28;20057;-78
2021/09/28 04:27:24;;;;;;;5.20;1.55;;;;;;;18.37;47.36;101910.22;4956133;28;20070;-78
2021/09/28 04:29:50;;;;;;;4.47;1.45;;;;;;;18.36;47.53;101919.50;4973515;28;20047;-77
2021/09/28 04:32:17;;;;;;;3.10;1.10;;;;;;;18.35;47.78;101916.88;4970008;28;20043;-79
2021/09/28 04:34:43;;;;;;;4.10;1.50;;;;;;;18.33;47.61;101913.38;4972404;28;20126;-77
2021/09/28 04:37:11;;;;;;;5.22;1.70;;;;;;;18.32;47.45;101911.63;4988307;28;20047;-78
2021/09/28 04:39:38;;;;;;;3.67;1.40;;;;;;;18.32;47.44;101922.63;4956128;28;20693;-78
2021/09/28 04:42:05;;;;;;;3.22;1.35;;;;;;;18.30;47.39;101925.50;4971005;28;20051;-78
2021/09/28 04:44:32;;;;;;;4.82;1.80;;;;;;;18.28;47.35;101924.75;4968535;28;20138;-78
2021/09/28 04:46:58;;;;;;;3.45;1.50;;;;;;;18.26;47.37;101924.00;4978887;28;20118;-78
2021/09/28 04:49:25;;;;;;;5.22;1.70;;;;;;;18.26;47.72;101924.00;4961347;28;20082;-78
2021/09/28 04:51:51;;;;;;;3.78;1.50;;;;;;;18.25;47.60;101930.50;4967231;28;20615;-78
2021/09/28 04:54:18;;;;;;;3.63;1.52;;;;;;;18.23;47.67;101929.75;4968271;28;20058;-79
2021/09/28 04:56:45;;;;;;;4.03;1.80;;;;;;;18.21;47.28;101927.13;4985176;28;20055;-79
2021/09/28 04:59:11;;;;;;;3.75;1.50;;;;;;;18.20;47.43;101932.78;4967048;28;20125;-79
2021/09/28 05:01:38;;;;;;;4.55;1.77;;;;;;;18.18;47.63;101923.75;4983567;28;20050;-78
2021/09/28 05:04:06;;;;;;;4.22;1.60;;;;;;;18.17;47.61;101933.00;4970652;28;20049;-79
2021/09/28 05:06:32;;;;;;;3.95;1.60;;;;;;;18.15;46.99;101933.13;4973679;28;21902;-79
2021/09/28 05:08:59;;;;;;;5.38;1.75;;;;;;;18.15;47.61;101937.75;4970456;28;20042;-77
2021/09/28 05:11:26;;;;;;;4.75;1.70;;;;;;;18.14;47.45;101938.75;4972640;28;20051;-79
2021/09/28 05:13:52;;;;;;;4.00;1.80;;;;;;;18.11;47.44;101939.88;4971442;28;20074;-79
2021/09/28 05:16:20;;;;;;;3.55;1.90;;;;;;;18.10;47.19;101945.50;4955216;28;20050;-79
2021/09/28 05:18:47;;;;;;;4.25;2.10;;;;;;;18.09;47.30;101949.25;4981037;28;20054;-78
2021/09/28 05:21:14;;;;;;;4.45;2.22;;;;;;;18.08;47.22;101953.00;4973491;28;20051;-78
2021/09/28 05:23:45;;;;;;;3.80;1.88;;;;;;;18.05;47.65;101948.59;4970062;28;20061;-79
2021/09/28 05:26:13;;;;;;;4.50;1.80;;;;;;;18.05;47.77;101950.47;4978869;28;20062;-78
2021/09/28 05:28:40;;;;;;;5.53;2.10;;;;;;;18.02;47.30;101950.75;4974919;28;20046;-78
2021/09/28 05:31:06;;;;;;;3.22;1.90;;;;;;;18.00;47.73;101958.22;4969282;28;20058;-78
2021/09/28 05:33:33;;;;;;;3.20;1.80;;;;;;;17.99;47.12;101957.34;4969242;28;20158;-77
2021/09/28 05:36:00;;;;;;;5.15;2.10;;;;;;;17.97;47.22;101951.09;4980949;28;20129;-76
2021/09/28 05:38:27;;;;;;;5.63;2.10;;;;;;;17.96;47.35;101956.72;4964981;28;20046;-77
2021/09/28 05:40:53;;;;;;;4.60;1.88;;;;;;;17.95;47.56;101964.13;4955035;28;20090;-77
2021/09/28 05:43:20;;;;;;;5.32;2.00;;;;;;;17.93;47.68;101963.34;4965704;28;20556;-77
2021/09/28 05:45:46;;;;;;;4.03;1.98;;;;;;;17.92;47.24;101960.72;4959083;28;20130;-77
2021/09/28 05:48:13;;;;;;;5.55;2.05;;;;;;;17.89;47.37;101961.84;4965486;28;20141;-77
2021/09/28 05:50:41;;;;;;;4.97;1.85;;;;;;;17.87;47.92;101966.59;4960064;28;20142;-77
2021/09/28 05:53:08;;;;;;;4.32;2.10;;;;;;;17.86;47.42;101967.59;4976333;28;20051;-77
2021/09/28 05:55:37;;;;;;;3.15;1.65;;;;;;;17.86;47.72;101959.34;4969006;28;20231;-77
2021/09/28 05:58:03;;;;;;;6.18;2.13;;;;;;;17.82;47.82;101955.97;4966855;28;20054;-77
2021/09/28 06:00:30;;;;;;;6.10;2.20;;;;;;;17.80;47.80;101957.06;4965223;28;20046;-77
2021/09/28 06:02:57;;;;;;;6.07;1.90;;;;;;;17.77;47.83;101958.22;4962917;28;20047;-76
2021/09/28 06:05:24;;;;;;;4.35;2.10;;;;;;;17.76;48.02;101955.59;4969443;28;20058;-77
2021/09/28 06:07:51;;;;;;;5.57;2.10;;;;;;;17.74;48.29;101952.06;4964036;28;20539;-77
2021/09/28 06:10:18;;;;;;;3.47;1.80;;;;;;;17.72;47.75;101954.94;4966809;28;20548;-76
2021/09/28 06:12:44;;;;;;;4.68;1.75;;;;;;;17.72;48.04;101965.03;4967332;28;20053;-76
2021/09/28 06:15:11;;;;;;;4.03;1.77;;;;;;;17.71;47.92;101966.91;4967958;28;20134;-76
2021/09/28 06:17:38;;;;;;;4.57;1.85;;;;;;;17.71;48.14;101955.94;4964284;28;20074;-76
2021/09/28 06:20:05;;;;;;;4.43;1.92;;;;;;;17.72;47.82;101954.06;4966596;28;20149;-76
2021/09/28 06:22:31;;;;;;;5.68;1.90;;;;;;;17.71;48.04;101955.94;4973923;28;20046;-75
2021/09/28 06:24:58;;;;;;;4.13;1.92;;;;;;;17.71;47.95;101950.44;4965512;28;20050;-76
2021/09/28 06:27:25;;;;;;;4.65;1.90;;;;;;;17.71;48.48;101958.69;4969908;28;20593;-76
2021/09/28 06:29:51;;;;;;;4.82;1.92;;;;;;;17.72;48.31;101959.56;4974832;28;20134;-76
2021/09/28 06:32:19;;;;;;;7.07;2.20;;;;;;;17.72;48.66;101957.69;4967582;28;20141;-76
2021/09/28 06:34:45;;;;;;;4.93;2.08;;;;;;;17.73;48.54;101964.06;4966466;28;20125;-76
2021/09/28 06:37:12;;;;;;;5.75;1.80;;;;;;;17.73;48.70;101953.06;4967107;28;20067;-77
2021/09/28 06:39:39;;;;;;;5.30;1.95;;;;;;;17.73;48.17;101959.44;4967796;28;20133;-76
2021/09/28 06:42:05;;;;;;;3.63;1.63;;;;;;;17.75;48.61;101956.56;4967576;28;20487;-77
2021/09/28 06:44:32;;;;;;;4.50;2.00;;;;;;;17.75;48.50;101964.81;4949958;28;20054;-76
2021/09/28 06:46:59;;;;;;;5.65;1.95;;;;;;;17.76;48.63;101959.22;4967123;28;20137;-76
2021/09/28 06:49:29;;;;;;;5.07;1.85;;;;;;;17.77;48.60;101955.47;4964570;28;20102;-76
2021/09/28 06:51:57;;;;;;;5.50;1.88;;;;;;;17.78;48.79;101957.22;4967113;28;20047;-76
2021/09/28 06:54:25;;;;;;;3.33;2.08;;;;;;;17.80;49.05;101952.44;4979808;28;20050;-76
2021/09/28 06:56:51;;;;;;;5.57;2.38;;;;;;;17.82;48.84;101958.72;4946750;28;20050;-76
2021/09/28 06:59:18;;;;;;;4.97;2.15;;;;;;;17.83;49.36;101963.22;4966034;28;20039;-76
2021/09/28 07:01:45;;;;;;;5.28;2.17;;;;;;;17.87;49.27;101956.44;4966739;28;20078;-76
2021/09/28 07:04:12;;;;;;;6.20;2.15;;;;;;;17.88;48.97;101955.47;4964528;28;20539;-76
2021/09/28 07:06:39;;;;;;;5.15;2.58;;;;;;;17.91;49.55;101961.72;4964884;28;20111;-76
2021/09/28 07:09:05;;;;;;;5.13;2.00;;;;;;;17.93;49.09;101962.47;4960079;28;20078;-75
2021/09/28 07:11:32;;;;;;;4.40;1.95;;;;;;;17.95;49.23;101961.38;4961261;28;20137;-76
2021/09/28 07:13:58;;;;;;;5.50;2.40;;;;;;;17.98;49.33;101963.84;4965456;28;20137;-77
2021/09/28 07:16:25;;;;;;;4.47;2.10;;;;;;;18.02;49.21;101967.25;4978472;28;20102;-76
2021/09/28 07:18:52;;;;;;;4.90;2.42;;;;;;;18.06;49.39;101965.97;4956540;28;20520;-76
2021/09/28 07:21:18;;;;;;;4.78;2.08;;;;;;;18.09;49.70;101965.75;4965715;28;20527;-76
2021/09/28 07:23:45;;;;;;;5.60;2.03;;;;;;;18.13;49.63;101972.72;4965898;28;20129;-75
2021/09/28 07:26:12;;;;;;;5.30;1.92;;;;;;;18.18;49.92;101970.50;4966293;28;20058;-76
2021/09/28 07:28:39;;;;;;;5.32;2.40;;;;;;;18.22;49.88;101977.47;4962587;28;20445;-76
2021/09/28 07:31:07;;;;;;;3.75;1.85;;;;;;;18.29;50.12;101977.84;4961295;28;20485;-77
2021/09/28 07:33:34;;;;;;;5.93;2.33;;;;;;;18.32;49.83;101975.72;4965614;28;20047;-77
2021/09/28 07:36:04;;;;;;;6.78;2.08;;;;;;;18.36;49.55;101979.13;4981677;28;20059;-77
2021/09/28 07:38:40;;;;;;;5.25;2.13;;;;;;;18.39;49.72;101982.47;4960761;28;20110;-74
2021/09/28 07:41:07;;;;;;;4.32;1.90;;;;;;;18.43;49.98;101986.75;4964671;28;20050;-74
2021/09/28 07:43:33;;;;;;;4.45;1.80;;;;;;;18.48;49.94;101989.09;4962341;28;20064;-73
2021/09/28 07:46:00;;;;;;;4.53;1.90;;;;;;;18.52;49.67;101987.88;4967709;28;20785;-73
2021/09/28 07:48:27;;;;;;;6.10;2.15;;;;;;;18.56;50.09;101990.25;4969487;28;20105;-71
2021/09/28 07:50:55;;;;;;;5.03;2.20;;;;;;;18.61;49.64;101985.22;4978259;28;20517;-72
2021/09/28 07:53:22;;;;;;;7.15;2.10;;;;;;;18.62;49.57;101989.75;4965200;28;20113;-71
2021/09/28 07:55:49;;;;;;;4.15;1.92;;;;;;;18.65;49.55;101990.50;4962562;28;20082;-71
2021/09/28 07:58:15;;;;;;;4.93;2.00;;;;;;;18.67;49.69;101986.63;4962497;28;20711;-71
2021/09/28 08:00:42;;;;;;;5.57;2.10;;;;;;;18.71;50.08;101992.72;4960243;28;20055;-72
2021/09/28 08:03:09;;;;;;;4.07;2.00;;;;;;;18.73;49.38;101993.47;4963654;28;20051;-72
2021/09/28 08:05:36;;;;;;;5.50;2.00;;;;;;;18.76;49.86;101987.75;4964523;28;20086;-72
2021/09/28 08:08:03;;;;;;;3.75;1.90;;;;;;;18.78;49.50;101985.72;4959698;28;20133;-72
2021/09/28 08:10:29;;;;;;;4.28;1.73;;;;;;;18.80;49.45;101990.09;4966635;28;20070;-71
2021/09/28 08:12:59;;;;;;;4.90;2.33;;;;;;;18.83;49.41;101988.97;4966159;28;20057;-71
2021/09/28 08:15:25;;;;;;;3.58;1.80;;;;;;;18.85;49.45;101987.84;4965390;28;20556;-71
2021/09/28 08:17:52;;;;;;;5.15;1.98;;;;;;;18.86;49.58;101984.06;4963529;28;20085;-72
2021/09/28 08:20:21;;;;;;;6.22;2.40;;;;;;;18.90;49.74;101984.69;4966023;28;20157;-71
2021/09/28 08:22:49;;;;;;;4.35;2.00;;;;;;;18.92;49.57;101989.06;4961014;28;20082;-72
2021/09/28 08:25:17;;;;;;;4.00;1.67;;;;;;;18.93;49.47;101985.31;4964759;28;20050;-72
2021/09/28 08:30:30;;;;;;;5.35;2.08;;;;;;;18.97;49.54;101985.91;4977679;28;20125;-74
2021/09/28 08:32:56;;;;;;;5.57;2.20;;;;;;;19.00;49.72;101993.94;4972079;28;20142;-75
2021/09/28 08:35:24;;;;;;;5.40;1.60;;;;;;;19.04;49.75;101994.53;4961586;28;20104;-75
2021/09/28 08:37:50;;;;;;;4.13;1.55;;;;;;;19.05;49.42;101986.16;4964946;28;20473;-75
2021/09/28 08:40:19;;;;;;;4.18;1.52;;;;;;;19.09;49.80;101990.41;4982752;28;20141;-74
2021/09/28 08:42:46;;;;;;;5.55;1.63;;;;;;;19.13;49.97;101994.63;4965266;28;20049;-75
2021/09/28 08:45:13;;;;;;;5.28;1.70;;;;;;;19.18;49.41;101991.50;4987163;28;20050;-75
2021/09/28 08:47:42;;;;;;;3.47;1.40;;;;;;;19.22;49.58;101993.84;4986139;28;20078;-75
2021/09/28 08:50:17;;;;;;;4.03;1.52;;;;;;;19.28;49.35;101989.69;4983209;28;20082;-75
2021/09/28 08:52:47;;;;;;;5.53;1.60;;;;;;;19.30;49.74;101979.44;4989681;28;20125;-75
2021/09/28 08:55:19;;;;;;;2.90;1.50;;;;;;;19.32;49.42;101981.06;4979169;28;20054;-75
2021/09/28 08:57:47;;;;;;;4.15;1.60;;;;;;;19.35;49.62;101980.78;4982382;28;20062;-75
2021/09/28 09:00:13;;;;;;;4.13;1.25;;;;;;;19.39;49.57;101974.00;4982672;28;20100;-74
2021/09/28 09:02:42;;;;;;;2.95;1.42;;;;;;;19.48;49.71;101985.28;4969486;28;20073;-75
2021/09/28 09:05:16;;;;;;;4.35;1.70;;;;;;;19.52;49.86;101984.00;4986768;28;20058;-74
2021/09/28 09:07:56;;;;;;;6.70;1.45;;;;;;;19.59;49.45;101976.97;4985005;28;20050;-74
2021/09/28 09:10:28;;;;;;;3.95;1.48;;;;;;;19.66;49.94;101978.16;4985272;28;20078;-75
2021/09/28 09:12:55;;;;;;;2.72;1.40;;;;;;;19.66;50.03;101975.41;4970114;28;20042;-75
2021/09/28 09:15:27;;;;;;;4.63;1.67;;;;;;;19.76;49.88;101979.13;4987078;28;20654;-74
2021/09/28 09:17:57;;;;;;;4.07;1.30;;;;;;;19.81;50.08;101971.31;4981794;28;20491;-75
2021/09/28 09:20:34;;;;;;;3.50;1.73;;;;;;;19.87;49.63;101979.03;4965677;28;20394;-74
2021/09/28 09:23:15;;;;;;;3.53;1.42;;;;;;;19.96;49.78;101972.69;4983300;28;20412;-74
2021/09/28 09:25:42;;;;;;;5.00;1.45;;;;;;;20.00;49.29;101963.16;4981309;28;20108;-74
2021/09/28 09:28:31;;;;;;;3.70;1.45;;;;;;;20.07;49.35;101969.88;4963496;28;20054;-74
2021/09/28 09:31:21;;;;;;;4.10;1.35;;;;;;;20.14;49.51;101970.19;4969496;28;20085;-75
2021/09/28 09:33:50;;;;;;;3.20;1.40;;;;;;;20.19;49.42;101973.41;4968690;28;20046;-74
2021/09/28 09:36:19;;;;;;;6.70;1.40;;;;;;;20.27;49.05;101965.31;4986669;28;20054;-75
2021/09/28 09:38:50;;;;;;;5.25;2.00;;;;;;;20.32;49.14;101965.78;4986657;28;20125;-74
2021/09/28 09:41:17;;;;;;;4.68;1.60;;;;;;;20.36;49.19;101964.50;4970037;28;20061;-74
2021/09/28 09:43:48;;;;;;;4.28;1.40;;;;;;;20.42;48.94;101960.34;4983372;28;20126;-75
2021/09/28 09:46:19;;;;;;;3.80;1.38;;;;;;;20.50;48.97;101966.03;4962164;28;20130;-74
2021/09/28 09:48:48;;;;;;;4.22;1.40;;;;;;;20.55;48.99;101960.09;4986709;28;20093;-75
2021/09/28 09:51:18;;;;;;;4.13;1.70;;;;;;;20.60;48.62;101961.41;4970162;28;20113;-75
2021/09/28 09:53:50;;;;;;;3.25;1.23;;;;;;;20.67;48.67;101959.81;4983062;28;20117;-76
2021/09/28 09:56:19;;;;;;;3.72;1.30;;;;;;;20.72;48.23;101953.91;4982807;28;20089;-75
2021/09/28 09:58:46;;;;;;;3.95;1.40;;;;;;;20.77;48.92;101957.09;4965647;28;20116;-75
2021/09/28 10:01:13;;;;;;;2.90;1.38;;;;;;;20.83;48.49;101954.66;4970134;28;20073;-75
2021/09/28 10:03:41;;;;;;;3.72;1.50;;;;;;;20.91;48.83;101956.72;4983425;28;20065;-75
2021/09/28 10:06:08;;;;;;;4.35;1.77;;;;;;;20.96;49.03;101953.50;4968976;28;20083;-75
2021/09/28 10:08:42;;;;;;;4.10;1.60;;;;;;;21.06;48.37;101944.22;4967450;28;20074;-74
2021/09/28 10:11:09;;;;;;;4.88;1.90;;;;;;;21.09;48.36;101946.69;4978263;28;20054;-73
2021/09/28 10:13:46;;;;;;;4.75;1.70;;;;;;;21.19;47.92;101947.59;4984338;28;20043;-75
2021/09/28 10:16:33;;;;;;;5.47;1.80;;;;;;;21.23;47.47;101943.53;4984960;28;20074;-72
2021/09/28 10:19:01;;;;;;;5.18;1.55;;;;;;;21.28;47.60;101940.34;4973833;28;20560;-62
2021/09/28 10:21:38;;;;;;;4.50;1.80;;;;;;;21.35;46.99;101944.25;4985269;28;20074;-62
2021/09/28 10:24:35;;;;;;;5.45;1.77;;;;;;;21.36;47.50;101934.94;4982580;28;20125;-63
2021/09/28 10:27:02;;;;;;;7.78;1.85;;;;;;;21.38;47.51;101940.34;4973163;28;20138;-62
2021/09/28 10:29:42;;;;;;;5.85;1.85;;;;;;;21.48;47.45;101946.72;4987908;28;20078;-62
2021/09/28 10:32:24;;;;;;;4.13;1.50;;;;;;;21.49;47.17;101937.44;4984177;28;20100;-62
2021/09/28 10:35:06;;;;;;;4.25;1.75;;;;;;;21.53;47.03;101945.25;4978760;28;20066;-63
2021/09/28 10:37:42;;;;;;;4.63;1.42;;;;;;;21.56;46.75;101930.28;4981609;28;20109;-77
2021/09/28 10:40:32;;;;;;;3.97;1.77;;;;;;;21.59;47.16;101941.03;4984856;28;20108;-77
2021/09/28 10:43:01;;;;;;;5.57;1.65;;;;;;;21.61;47.51;101937.09;4984737;28;20050;-77
2021/09/28 10:45:27;;;;;;;5.60;1.85;;;;;;;21.67;47.16;101924.56;4966945;28;20109;-77
2021/09/28 10:47:58;;;;;;;4.38;1.90;;;;;;;21.74;46.67;101933.16;4980773;28;20046;-77
2021/09/28 10:50:25;;;;;;;4.40;1.60;;;;;;;21.76;46.66;101926.44;4978209;28;20577;-77
2021/09/28 10:52:54;;;;;;;4.10;1.45;;;;;;;21.82;46.38;101919.47;4969628;28;20500;-76
2021/09/28 10:55:27;;;;;;;4.78;1.65;;;;;;;21.87;46.05;101918.00;4985458;28;20121;-77
2021/09/28 10:57:54;;;;;;;4.82;1.90;;;;;;;21.86;46.20;101909.84;4980923;28;20680;-77
2021/09/28 11:00:26;;;;;;;5.05;1.50;;;;;;;21.93;46.12;101916.50;4985347;28;20108;-77
2021/09/28 11:03:00;;;;;;;4.28;1.70;;;;;;;21.93;46.26;101913.75;4984754;28;20125;-77
2021/09/28 11:05:29;;;;;;;4.50;1.35;;;;;;;21.98;46.52;101901.25;4982203;28;20046;-76
2021/09/28 11:07:56;;;;;;;4.65;1.67;;;;;;;22.00;46.34;101907.50;4984706;28;20078;-76
2021/09/28 11:10:23;;;;;;;5.03;1.70;;;;;;;22.06;46.49;101905.16;4968403;28;20078;-76
2021/09/28 11:12:50;;;;;;;3.70;1.60;;;;;;;22.10;46.11;101901.06;4985174;28;20056;-76
2021/09/28 11:15:18;;;;;;;4.35;1.60;;;;;;;22.16;46.05;101903.19;4963412;28;20551;-77
2021/09/28 11:17:45;;;;;;;5.30;1.45;;;;;;;22.18;46.05;101899.28;4966574;28;20073;-76
2021/09/28 11:20:25;;;;;;;7.35;1.63;;;;;;;22.25;45.92;101892.09;4984798;28;20050;-76
2021/09/28 11:23:10;;;;;;;3.30;1.13;;;;;;;22.29;45.12;101895.44;4980885;28;20582;-76
2021/09/28 11:25:38;;;;;;;4.00;1.35;;;;;;;22.30;46.03;101889.75;4984266;28;20440;-76
2021/09/28 11:28:07;;;;;;;6.07;1.55;;;;;;;22.36;45.58;101880.84;4983660;28;20077;-77
2021/09/28 11:30:39;;;;;;;5.15;1.52;;;;;;;22.42;45.28;101875.69;4982094;28;20477;-77
2021/09/28 11:33:08;;;;;;;7.20;1.60;;;;;;;22.44;44.99;101866.22;4984608;28;20101;-76